sensor_id;sensor_type;location;lat;lon;timestamp;temperature;humidity
43697;DHT22;29301;47.620;19.560;2023-05-07T00:01:37;15.10;94.80
43697;DHT22;29301;47.620;19.560;2023-05-07T00:04:03;15.00;95.40
43697;DHT22;29301;47.620;19.560;2023-05-07T00:06:29;15.10;95.40
43697;DHT22;29301;47.620;19.560;2023-05-07T00:08:56;15.20;95.10
43697;DHT22;29301;47.620;19.560;2023-05-07T00:11:22;15.30;94.90
43697;DHT22;29301;47.620;19.560;2023-05-07T00:13:48;15.40;94.40
43697;DHT22;29301;47.620;19.560;2023-05-07T00:16:13;15.40;94.00
43697;DHT22;29301;47.620;19.560;2023-05-07T00:18:39;15.50;93.60
43697;DHT22;29301;47.620;19.560;2023-05-07T00:21:05;15.60;93.00
43697;DHT22;29301;47.620;19.560;2023-05-07T00:23:31;15.60;92.70
43697;DHT22;29301;47.620;19.560;2023-05-07T00:25:56;15.50;92.80
43697;DHT22;29301;47.620;19.560;2023-05-07T00:28:22;15.50;92.90
43697;DHT22;29301;47.620;19.560;2023-05-07T00:30:48;15.40;92.70
43697;DHT22;29301;47.620;19.560;2023-05-07T00:33:13;15.40;92.70
43697;DHT22;29301;47.620;19.560;2023-05-07T00:35:39;15.50;92.70
43697;DHT22;29301;47.620;19.560;2023-05-07T00:38:05;15.50;92.50
43697;DHT22;29301;47.620;19.560;2023-05-07T00:40:30;15.50;92.70
43697;DHT22;29301;47.620;19.560;2023-05-07T00:42:56;15.30;92.80
43697;DHT22;29301;47.620;19.560;2023-05-07T00:45:28;15.20;93.30
43697;DHT22;29301;47.620;19.560;2023-05-07T00:47:59;15.10;93.70
43697;DHT22;29301;47.620;19.560;2023-05-07T00:50:26;15.10;94.10
43697;DHT22;29301;47.620;19.560;2023-05-07T00:52:53;15.00;94.50
43697;DHT22;29301;47.620;19.560;2023-05-07T00:55:18;15.00;94.80
43697;DHT22;29301;47.620;19.560;2023-05-07T00:57:45;15.00;94.90
43697;DHT22;29301;47.620;19.560;2023-05-07T01:00:12;15.00;94.90
43697;DHT22;29301;47.620;19.560;2023-05-07T01:02:41;15.00;95.10
43697;DHT22;29301;47.620;19.560;2023-05-07T01:05:10;15.10;94.90
43697;DHT22;29301;47.620;19.560;2023-05-07T01:07:38;15.10;94.90
43697;DHT22;29301;47.620;19.560;2023-05-07T01:10:06;15.10;95.20
43697;DHT22;29301;47.620;19.560;2023-05-07T01:12:33;15.10;95.20
43697;DHT22;29301;47.620;19.560;2023-05-07T01:14:58;15.10;95.20
43697;DHT22;29301;47.620;19.560;2023-05-07T01:17:25;15.20;94.90
43697;DHT22;29301;47.620;19.560;2023-05-07T01:19:51;15.20;94.40
43697;DHT22;29301;47.620;19.560;2023-05-07T01:22:32;15.20;94.20
43697;DHT22;29301;47.620;19.560;2023-05-07T01:24:59;15.10;94.10
43697;DHT22;29301;47.620;19.560;2023-05-07T01:27:27;14.90;94.90
43697;DHT22;29301;47.620;19.560;2023-05-07T01:29:53;14.90;95.30
43697;DHT22;29301;47.620;19.560;2023-05-07T01:32:29;14.90;95.50
43697;DHT22;29301;47.620;19.560;2023-05-07T01:34:57;15.00;95.30
43697;DHT22;29301;47.620;19.560;2023-05-07T01:37:24;14.90;95.20
43697;DHT22;29301;47.620;19.560;2023-05-07T01:39:50;14.90;95.20
43697;DHT22;29301;47.620;19.560;2023-05-07T01:42:17;14.80;95.40
43697;DHT22;29301;47.620;19.560;2023-05-07T01:44:43;14.90;95.70
43697;DHT22;29301;47.620;19.560;2023-05-07T01:47:09;14.80;96.00
43697;DHT22;29301;47.620;19.560;2023-05-07T01:49:35;14.80;96.30
43697;DHT22;29301;47.620;19.560;2023-05-07T01:52:01;14.90;96.40
43697;DHT22;29301;47.620;19.560;2023-05-07T01:54:27;14.90;96.50
43697;DHT22;29301;47.620;19.560;2023-05-07T01:56:55;15.00;96.40
43697;DHT22;29301;47.620;19.560;2023-05-07T01:59:20;15.00;96.30
43697;DHT22;29301;47.620;19.560;2023-05-07T02:01:46;15.00;96.30
43697;DHT22;29301;47.620;19.560;2023-05-07T02:04:12;15.10;96.40
43697;DHT22;29301;47.620;19.560;2023-05-07T02:06:38;15.00;96.30
43697;DHT22;29301;47.620;19.560;2023-05-07T02:09:04;15.00;96.10
43697;DHT22;29301;47.620;19.560;2023-05-07T02:11:30;15.10;96.00
43697;DHT22;29301;47.620;19.560;2023-05-07T02:13:55;15.10;95.90
43697;DHT22;29301;47.620;19.560;2023-05-07T02:16:21;15.10;96.10
43697;DHT22;29301;47.620;19.560;2023-05-07T02:18:48;15.00;96.20
43697;DHT22;29301;47.620;19.560;2023-05-07T02:21:14;15.00;96.40
43697;DHT22;29301;47.620;19.560;2023-05-07T02:23:39;15.00;96.60
43697;DHT22;29301;47.620;19.560;2023-05-07T02:26:05;15.00;96.50
43697;DHT22;29301;47.620;19.560;2023-05-07T02:28:31;15.00;96.30
43697;DHT22;29301;47.620;19.560;2023-05-07T02:30:57;15.10;96.10
43697;DHT22;29301;47.620;19.560;2023-05-07T02:33:25;15.10;95.90
43697;DHT22;29301;47.620;19.560;2023-05-07T02:35:50;15.10;95.70
43697;DHT22;29301;47.620;19.560;2023-05-07T02:38:17;15.20;95.30
43697;DHT22;29301;47.620;19.560;2023-05-07T02:40:43;15.20;95.00
43697;DHT22;29301;47.620;19.560;2023-05-07T02:43:09;15.20;94.70
43697;DHT22;29301;47.620;19.560;2023-05-07T02:45:35;15.20;94.70
43697;DHT22;29301;47.620;19.560;2023-05-07T02:48:01;15.10;94.80
43697;DHT22;29301;47.620;19.560;2023-05-07T02:50:27;15.10;94.70
43697;DHT22;29301;47.620;19.560;2023-05-07T02:52:53;15.10;94.60
43697;DHT22;29301;47.620;19.560;2023-05-07T02:55:18;15.10;94.60
43697;DHT22;29301;47.620;19.560;2023-05-07T02:57:44;15.10;94.40
43697;DHT22;29301;47.620;19.560;2023-05-07T03:00:11;15.10;94.40
43697;DHT22;29301;47.620;19.560;2023-05-07T03:02:37;15.10;94.10
43697;DHT22;29301;47.620;19.560;2023-05-07T03:05:03;15.10;94.00
43697;DHT22;29301;47.620;19.560;2023-05-07T03:07:29;15.00;94.20
43697;DHT22;29301;47.620;19.560;2023-05-07T03:09:55;15.00;94.40
43697;DHT22;29301;47.620;19.560;2023-05-07T03:12:20;14.90;94.50
43697;DHT22;29301;47.620;19.560;2023-05-07T03:14:46;14.80;94.70
43697;DHT22;29301;47.620;19.560;2023-05-07T03:17:12;14.80;94.90
43697;DHT22;29301;47.620;19.560;2023-05-07T03:19:37;14.80;95.10
43697;DHT22;29301;47.620;19.560;2023-05-07T03:22:03;14.80;95.30
43697;DHT22;29301;47.620;19.560;2023-05-07T03:24:29;14.80;95.70
43697;DHT22;29301;47.620;19.560;2023-05-07T03:26:54;14.70;95.80
43697;DHT22;29301;47.620;19.560;2023-05-07T03:29:20;14.50;96.20
43697;DHT22;29301;47.620;19.560;2023-05-07T03:31:46;14.20;98.00
43697;DHT22;29301;47.620;19.560;2023-05-07T03:34:11;14.20;99.60
43697;DHT22;29301;47.620;19.560;2023-05-07T03:36:37;14.30;99.90
43697;DHT22;29301;47.620;19.560;2023-05-07T03:39:03;14.40;99.80
43697;DHT22;29301;47.620;19.560;2023-05-07T03:41:28;14.50;99.30
43697;DHT22;29301;47.620;19.560;2023-05-07T03:43:55;14.60;98.90
43697;DHT22;29301;47.620;19.560;2023-05-07T03:46:20;14.60;98.60
43697;DHT22;29301;47.620;19.560;2023-05-07T03:48:46;14.70;98.10
43697;DHT22;29301;47.620;19.560;2023-05-07T03:51:12;14.70;97.50
43697;DHT22;29301;47.620;19.560;2023-05-07T03:53:37;14.70;97.60
43697;DHT22;29301;47.620;19.560;2023-05-07T03:56:03;14.60;97.80
43697;DHT22;29301;47.620;19.560;2023-05-07T03:58:29;14.70;97.90
43697;DHT22;29301;47.620;19.560;2023-05-07T04:00:55;14.70;97.80
43697;DHT22;29301;47.620;19.560;2023-05-07T04:03:20;14.70;97.70
43697;DHT22;29301;47.620;19.560;2023-05-07T04:05:46;14.70;97.90
43697;DHT22;29301;47.620;19.560;2023-05-07T04:08:12;14.70;97.90
43697;DHT22;29301;47.620;19.560;2023-05-07T04:10:38;14.70;97.80
43697;DHT22;29301;47.620;19.560;2023-05-07T04:13:03;14.80;97.50
43697;DHT22;29301;47.620;19.560;2023-05-07T04:15:29;14.80;97.40
43697;DHT22;29301;47.620;19.560;2023-05-07T04:17:54;14.80;97.10
43697;DHT22;29301;47.620;19.560;2023-05-07T04:20:20;14.90;96.80
43697;DHT22;29301;47.620;19.560;2023-05-07T04:22:46;14.90;96.60
43697;DHT22;29301;47.620;19.560;2023-05-07T04:25:11;14.90;96.60
43697;DHT22;29301;47.620;19.560;2023-05-07T04:27:37;15.00;96.30
43697;DHT22;29301;47.620;19.560;2023-05-07T04:30:03;15.00;96.10
43697;DHT22;29301;47.620;19.560;2023-05-07T04:32:30;15.00;96.20
43697;DHT22;29301;47.620;19.560;2023-05-07T04:34:56;15.00;96.30
43697;DHT22;29301;47.620;19.560;2023-05-07T04:37:22;15.00;96.40
43697;DHT22;29301;47.620;19.560;2023-05-07T04:39:48;15.00;96.20
43697;DHT22;29301;47.620;19.560;2023-05-07T04:42:17;14.90;96.50
43697;DHT22;29301;47.620;19.560;2023-05-07T04:44:46;14.90;96.70
43697;DHT22;29301;47.620;19.560;2023-05-07T04:47:12;14.90;96.90
43697;DHT22;29301;47.620;19.560;2023-05-07T04:49:40;14.80;97.40
43697;DHT22;29301;47.620;19.560;2023-05-07T04:52:06;14.80;97.80
43697;DHT22;29301;47.620;19.560;2023-05-07T04:54:32;14.80;97.90
43697;DHT22;29301;47.620;19.560;2023-05-07T04:56:57;14.80;98.00
43697;DHT22;29301;47.620;19.560;2023-05-07T04:59:23;14.90;98.10
43697;DHT22;29301;47.620;19.560;2023-05-07T05:01:49;14.90;97.90
43697;DHT22;29301;47.620;19.560;2023-05-07T05:04:15;15.00;97.80
43697;DHT22;29301;47.620;19.560;2023-05-07T05:06:40;15.00;97.60
43697;DHT22;29301;47.620;19.560;2023-05-07T05:09:06;15.00;97.40
43697;DHT22;29301;47.620;19.560;2023-05-07T05:11:32;15.10;97.60
43697;DHT22;29301;47.620;19.560;2023-05-07T05:13:59;15.10;97.70
43697;DHT22;29301;47.620;19.560;2023-05-07T05:16:25;15.00;97.90
43697;DHT22;29301;47.620;19.560;2023-05-07T05:18:51;15.00;98.40
43697;DHT22;29301;47.620;19.560;2023-05-07T05:21:17;15.10;98.50
43697;DHT22;29301;47.620;19.560;2023-05-07T05:23:43;15.20;98.10
43697;DHT22;29301;47.620;19.560;2023-05-07T05:26:09;15.10;98.00
43697;DHT22;29301;47.620;19.560;2023-05-07T05:28:34;15.20;98.30
43697;DHT22;29301;47.620;19.560;2023-05-07T05:31:00;15.30;98.20
43697;DHT22;29301;47.620;19.560;2023-05-07T05:33:26;15.40;97.90
43697;DHT22;29301;47.620;19.560;2023-05-07T05:35:53;15.50;97.60
43697;DHT22;29301;47.620;19.560;2023-05-07T05:38:18;15.50;97.20
43697;DHT22;29301;47.620;19.560;2023-05-07T05:40:44;15.60;97.00
43697;DHT22;29301;47.620;19.560;2023-05-07T05:43:10;15.70;96.80
43697;DHT22;29301;47.620;19.560;2023-05-07T05:45:35;15.80;96.30
43697;DHT22;29301;47.620;19.560;2023-05-07T05:48:01;15.90;96.60
43697;DHT22;29301;47.620;19.560;2023-05-07T05:50:27;16.00;96.50
43697;DHT22;29301;47.620;19.560;2023-05-07T05:52:53;16.10;95.50
43697;DHT22;29301;47.620;19.560;2023-05-07T05:55:18;16.20;95.30
43697;DHT22;29301;47.620;19.560;2023-05-07T05:57:44;16.20;95.20
43697;DHT22;29301;47.620;19.560;2023-05-07T06:00:10;16.30;96.20
43697;DHT22;29301;47.620;19.560;2023-05-07T06:02:36;16.40;95.80
43697;DHT22;29301;47.620;19.560;2023-05-07T06:05:02;16.50;95.60
43697;DHT22;29301;47.620;19.560;2023-05-07T06:07:28;16.50;95.10
43697;DHT22;29301;47.620;19.560;2023-05-07T06:09:53;16.50;95.00
43697;DHT22;29301;47.620;19.560;2023-05-07T06:12:20;16.60;95.70
43697;DHT22;29301;47.620;19.560;2023-05-07T06:14:46;16.70;95.40
43697;DHT22;29301;47.620;19.560;2023-05-07T06:17:11;16.80;96.00
43697;DHT22;29301;47.620;19.560;2023-05-07T06:19:37;16.90;95.70
43697;DHT22;29301;47.620;19.560;2023-05-07T06:22:03;17.10;95.10
43697;DHT22;29301;47.620;19.560;2023-05-07T06:24:28;17.30;94.30
43697;DHT22;29301;47.620;19.560;2023-05-07T06:26:54;17.40;91.90
43697;DHT22;29301;47.620;19.560;2023-05-07T06:29:20;17.50;90.60
43697;DHT22;29301;47.620;19.560;2023-05-07T06:31:46;17.70;90.00
43697;DHT22;29301;47.620;19.560;2023-05-07T06:34:11;17.90;87.50
43697;DHT22;29301;47.620;19.560;2023-05-07T06:36:40;18.10;86.20
43697;DHT22;29301;47.620;19.560;2023-05-07T06:39:06;18.20;84.70
43697;DHT22;29301;47.620;19.560;2023-05-07T06:41:32;18.30;81.60
43697;DHT22;29301;47.620;19.560;2023-05-07T06:43:57;18.40;81.40
43697;DHT22;29301;47.620;19.560;2023-05-07T06:46:23;18.50;79.80
43697;DHT22;29301;47.620;19.560;2023-05-07T06:48:49;18.60;78.80
43697;DHT22;29301;47.620;19.560;2023-05-07T06:51:14;18.70;78.50
43697;DHT22;29301;47.620;19.560;2023-05-07T06:53:40;18.70;78.70
43697;DHT22;29301;47.620;19.560;2023-05-07T06:56:06;18.90;79.10
43697;DHT22;29301;47.620;19.560;2023-05-07T06:58:32;19.20;80.60
43697;DHT22;29301;47.620;19.560;2023-05-07T07:00:57;19.50;76.20
43697;DHT22;29301;47.620;19.560;2023-05-07T07:03:23;19.70;74.30
43697;DHT22;29301;47.620;19.560;2023-05-07T07:05:54;19.80;72.10
43697;DHT22;29301;47.620;19.560;2023-05-07T07:08:21;20.00;70.60
43697;DHT22;29301;47.620;19.560;2023-05-07T07:10:47;20.10;68.70
43697;DHT22;29301;47.620;19.560;2023-05-07T07:13:13;20.40;68.70
43697;DHT22;29301;47.620;19.560;2023-05-07T07:15:39;20.60;65.50
43697;DHT22;29301;47.620;19.560;2023-05-07T07:18:06;20.80;65.60
43697;DHT22;29301;47.620;19.560;2023-05-07T07:20:32;21.00;62.80
43697;DHT22;29301;47.620;19.560;2023-05-07T07:22:57;21.00;60.70
43697;DHT22;29301;47.620;19.560;2023-05-07T07:25:23;21.00;61.20
43697;DHT22;29301;47.620;19.560;2023-05-07T07:27:49;21.20;61.10
43697;DHT22;29301;47.620;19.560;2023-05-07T07:30:15;21.60;62.10
43697;DHT22;29301;47.620;19.560;2023-05-07T07:32:41;21.90;58.90
43697;DHT22;29301;47.620;19.560;2023-05-07T07:35:07;22.10;57.60
43697;DHT22;29301;47.620;19.560;2023-05-07T07:37:33;22.10;57.10
43697;DHT22;29301;47.620;19.560;2023-05-07T07:39:59;22.30;56.90
43697;DHT22;29301;47.620;19.560;2023-05-07T07:42:25;22.50;54.70
43697;DHT22;29301;47.620;19.560;2023-05-07T07:44:50;22.50;54.10
43697;DHT22;29301;47.620;19.560;2023-05-07T07:47:16;22.70;52.80
43697;DHT22;29301;47.620;19.560;2023-05-07T07:49:42;22.70;50.80
43697;DHT22;29301;47.620;19.560;2023-05-07T07:52:08;22.80;52.00
43697;DHT22;29301;47.620;19.560;2023-05-07T07:54:33;22.90;49.20
43697;DHT22;29301;47.620;19.560;2023-05-07T07:56:59;23.10;47.50
43697;DHT22;29301;47.620;19.560;2023-05-07T07:59:25;23.10;48.10
43697;DHT22;29301;47.620;19.560;2023-05-07T08:01:50;23.00;43.90
43697;DHT22;29301;47.620;19.560;2023-05-07T08:04:17;22.70;46.70
43697;DHT22;29301;47.620;19.560;2023-05-07T08:06:43;22.70;43.10
43697;DHT22;29301;47.620;19.560;2023-05-07T08:09:14;22.40;42.90
43697;DHT22;29301;47.620;19.560;2023-05-07T08:11:40;22.10;43.20
43697;DHT22;29301;47.620;19.560;2023-05-07T08:14:06;21.80;44.90
43697;DHT22;29301;47.620;19.560;2023-05-07T08:16:32;21.80;45.80
43697;DHT22;29301;47.620;19.560;2023-05-07T08:18:57;21.90;45.00
43697;DHT22;29301;47.620;19.560;2023-05-07T08:21:23;22.00;47.50
43697;DHT22;29301;47.620;19.560;2023-05-07T08:23:49;22.40;49.20
43697;DHT22;29301;47.620;19.560;2023-05-07T08:26:15;23.00;47.80
43697;DHT22;29301;47.620;19.560;2023-05-07T08:28:40;23.30;45.40
43697;DHT22;29301;47.620;19.560;2023-05-07T08:31:06;23.40;43.90
43697;DHT22;29301;47.620;19.560;2023-05-07T08:33:31;23.80;44.60
43697;DHT22;29301;47.620;19.560;2023-05-07T08:35:58;24.20;43.10
43697;DHT22;29301;47.620;19.560;2023-05-07T08:38:24;24.60;42.00
43697;DHT22;29301;47.620;19.560;2023-05-07T08:40:50;24.50;38.50
43697;DHT22;29301;47.620;19.560;2023-05-07T08:43:17;24.00;39.70
43697;DHT22;29301;47.620;19.560;2023-05-07T08:45:45;23.90;41.00
43697;DHT22;29301;47.620;19.560;2023-05-07T08:48:16;23.90;40.10
43697;DHT22;29301;47.620;19.560;2023-05-07T08:50:42;23.80;40.70
43697;DHT22;29301;47.620;19.560;2023-05-07T08:53:08;23.70;40.40
43697;DHT22;29301;47.620;19.560;2023-05-07T08:55:33;23.70;40.10
43697;DHT22;29301;47.620;19.560;2023-05-07T08:58:00;23.80;40.30
43697;DHT22;29301;47.620;19.560;2023-05-07T09:00:26;23.80;38.20
43697;DHT22;29301;47.620;19.560;2023-05-07T09:02:53;23.70;37.60
43697;DHT22;29301;47.620;19.560;2023-05-07T09:05:19;23.70;38.20
43697;DHT22;29301;47.620;19.560;2023-05-07T09:07:45;23.70;37.90
43697;DHT22;29301;47.620;19.560;2023-05-07T09:10:12;23.70;38.00
43697;DHT22;29301;47.620;19.560;2023-05-07T09:12:37;23.40;37.60
43697;DHT22;29301;47.620;19.560;2023-05-07T09:15:05;23.40;38.50
43697;DHT22;29301;47.620;19.560;2023-05-07T09:17:31;23.50;38.90
43697;DHT22;29301;47.620;19.560;2023-05-07T09:19:56;23.70;39.20
43697;DHT22;29301;47.620;19.560;2023-05-07T09:22:27;23.90;39.20
43697;DHT22;29301;47.620;19.560;2023-05-07T09:24:52;23.90;38.50
43697;DHT22;29301;47.620;19.560;2023-05-07T09:27:18;23.80;38.30
43697;DHT22;29301;47.620;19.560;2023-05-07T09:29:44;23.50;37.60
43697;DHT22;29301;47.620;19.560;2023-05-07T09:32:10;23.40;38.40
43697;DHT22;29301;47.620;19.560;2023-05-07T09:34:36;23.30;37.90
43697;DHT22;29301;47.620;19.560;2023-05-07T09:37:03;23.30;37.20
43697;DHT22;29301;47.620;19.560;2023-05-07T09:39:49;23.40;37.80
43697;DHT22;29301;47.620;19.560;2023-05-07T09:42:15;23.50;37.90
43697;DHT22;29301;47.620;19.560;2023-05-07T09:44:41;23.60;37.60
43697;DHT22;29301;47.620;19.560;2023-05-07T09:47:08;23.30;37.20
43697;DHT22;29301;47.620;19.560;2023-05-07T09:49:36;23.30;37.10
43697;DHT22;29301;47.620;19.560;2023-05-07T09:52:04;23.30;36.80
43697;DHT22;29301;47.620;19.560;2023-05-07T09:54:34;23.40;36.70
43697;DHT22;29301;47.620;19.560;2023-05-07T09:57:04;23.40;35.80
43697;DHT22;29301;47.620;19.560;2023-05-07T09:59:34;23.40;36.20
43697;DHT22;29301;47.620;19.560;2023-05-07T10:02:03;23.30;37.20
43697;DHT22;29301;47.620;19.560;2023-05-07T10:04:29;23.20;37.80
43697;DHT22;29301;47.620;19.560;2023-05-07T10:06:56;23.30;37.70
43697;DHT22;29301;47.620;19.560;2023-05-07T10:09:23;23.40;38.30
43697;DHT22;29301;47.620;19.560;2023-05-07T10:11:49;23.80;39.10
43697;DHT22;29301;47.620;19.560;2023-05-07T10:14:15;24.10;37.40
43697;DHT22;29301;47.620;19.560;2023-05-07T10:16:41;24.30;36.80
43697;DHT22;29301;47.620;19.560;2023-05-07T10:19:08;24.40;35.40
43697;DHT22;29301;47.620;19.560;2023-05-07T10:21:37;24.40;35.10
43697;DHT22;29301;47.620;19.560;2023-05-07T10:24:04;24.50;34.10
43697;DHT22;29301;47.620;19.560;2023-05-07T10:26:32;23.90;33.80
43697;DHT22;29301;47.620;19.560;2023-05-07T10:29:07;23.50;35.20
43697;DHT22;29301;47.620;19.560;2023-05-07T10:31:39;23.50;35.90
43697;DHT22;29301;47.620;19.560;2023-05-07T10:34:14;23.50;35.20
43697;DHT22;29301;47.620;19.560;2023-05-07T10:36:42;23.30;35.40
43697;DHT22;29301;47.620;19.560;2023-05-07T10:39:08;23.30;36.30
43697;DHT22;29301;47.620;19.560;2023-05-07T10:41:33;23.50;36.70
43697;DHT22;29301;47.620;19.560;2023-05-07T10:43:59;23.70;36.50
43697;DHT22;29301;47.620;19.560;2023-05-07T10:46:27;23.70;35.70
43697;DHT22;29301;47.620;19.560;2023-05-07T10:51:29;23.60;33.10
43697;DHT22;29301;47.620;19.560;2023-05-07T10:56:37;23.10;35.10
43697;DHT22;29301;47.620;19.560;2023-05-07T11:01:52;22.70;36.70
43697;DHT22;29301;47.620;19.560;2023-05-07T11:04:18;22.60;36.60
43697;DHT22;29301;47.620;19.560;2023-05-07T11:09:58;22.50;36.20
43697;DHT22;29301;47.620;19.560;2023-05-07T11:15:05;22.50;35.60
43697;DHT22;29301;47.620;19.560;2023-05-07T11:17:32;22.40;36.40
43697;DHT22;29301;47.620;19.560;2023-05-07T11:20:03;22.50;35.00
43697;DHT22;29301;47.620;19.560;2023-05-07T11:25:06;22.60;33.30
43697;DHT22;29301;47.620;19.560;2023-05-07T11:27:32;22.90;32.80
43697;DHT22;29301;47.620;19.560;2023-05-07T11:29:59;23.10;32.30
43697;DHT22;29301;47.620;19.560;2023-05-07T11:32:28;23.20;31.40
43697;DHT22;29301;47.620;19.560;2023-05-07T11:34:55;23.50;31.50
43697;DHT22;29301;47.620;19.560;2023-05-07T11:37:22;23.60;31.60
43697;DHT22;29301;47.620;19.560;2023-05-07T11:39:48;23.70;31.60
43697;DHT22;29301;47.620;19.560;2023-05-07T11:42:32;23.70;31.80
43697;DHT22;29301;47.620;19.560;2023-05-07T11:44:58;23.80;31.60
43697;DHT22;29301;47.620;19.560;2023-05-07T11:47:24;24.10;31.40
43697;DHT22;29301;47.620;19.560;2023-05-07T11:49:54;24.30;31.00
43697;DHT22;29301;47.620;19.560;2023-05-07T11:52:22;24.50;31.30
43697;DHT22;29301;47.620;19.560;2023-05-07T11:54:55;24.70;30.00
43697;DHT22;29301;47.620;19.560;2023-05-07T11:57:25;24.60;29.30
43697;DHT22;29301;47.620;19.560;2023-05-07T11:59:57;24.60;29.80
43697;DHT22;29301;47.620;19.560;2023-05-07T12:02:23;24.50;29.30
43697;DHT22;29301;47.620;19.560;2023-05-07T12:04:53;24.50;30.00
43697;DHT22;29301;47.620;19.560;2023-05-07T12:07:20;24.70;31.30
43697;DHT22;29301;47.620;19.560;2023-05-07T12:09:46;24.90;30.90
43697;DHT22;29301;47.620;19.560;2023-05-07T12:12:13;25.00;31.10
43697;DHT22;29301;47.620;19.560;2023-05-07T12:14:42;25.20;31.40
43697;DHT22;29301;47.620;19.560;2023-05-07T12:17:09;25.40;31.20
43697;DHT22;29301;47.620;19.560;2023-05-07T12:19:36;25.50;29.80
43697;DHT22;29301;47.620;19.560;2023-05-07T12:22:06;25.60;29.80
43697;DHT22;29301;47.620;19.560;2023-05-07T12:24:49;25.60;30.10
43697;DHT22;29301;47.620;19.560;2023-05-07T12:27:16;25.60;30.50
43697;DHT22;29301;47.620;19.560;2023-05-07T12:29:47;25.50;31.10
43697;DHT22;29301;47.620;19.560;2023-05-07T12:32:14;25.60;30.20
43697;DHT22;29301;47.620;19.560;2023-05-07T12:34:40;25.70;30.00
43697;DHT22;29301;47.620;19.560;2023-05-07T12:37:06;25.70;29.40
43697;DHT22;29301;47.620;19.560;2023-05-07T12:39:31;25.70;29.70
43697;DHT22;29301;47.620;19.560;2023-05-07T12:42:00;25.50;30.60
43697;DHT22;29301;47.620;19.560;2023-05-07T12:44:31;25.10;31.30
43697;DHT22;29301;47.620;19.560;2023-05-07T12:46:57;24.90;32.20
43697;DHT22;29301;47.620;19.560;2023-05-07T12:49:23;24.70;32.60
43697;DHT22;29301;47.620;19.560;2023-05-07T12:51:50;24.70;32.90
43697;DHT22;29301;47.620;19.560;2023-05-07T12:54:32;24.40;33.60
43697;DHT22;29301;47.620;19.560;2023-05-07T12:57:02;24.50;36.90
43697;DHT22;29301;47.620;19.560;2023-05-07T12:59:36;24.60;36.60
43697;DHT22;29301;47.620;19.560;2023-05-07T13:02:02;24.70;35.50
43697;DHT22;29301;47.620;19.560;2023-05-07T13:04:28;24.60;35.00
43697;DHT22;29301;47.620;19.560;2023-05-07T13:06:53;24.70;35.00
43697;DHT22;29301;47.620;19.560;2023-05-07T13:09:19;24.60;34.00
43697;DHT22;29301;47.620;19.560;2023-05-07T13:11:44;24.50;33.60
43697;DHT22;29301;47.620;19.560;2023-05-07T13:14:10;24.50;33.70
43697;DHT22;29301;47.620;19.560;2023-05-07T13:16:36;24.40;33.40
43697;DHT22;29301;47.620;19.560;2023-05-07T13:19:01;24.30;33.70
43697;DHT22;29301;47.620;19.560;2023-05-07T13:21:27;24.20;33.90
43697;DHT22;29301;47.620;19.560;2023-05-07T13:23:53;24.20;33.70
43697;DHT22;29301;47.620;19.560;2023-05-07T13:26:18;24.10;34.10
43697;DHT22;29301;47.620;19.560;2023-05-07T13:28:44;23.90;34.60
43697;DHT22;29301;47.620;19.560;2023-05-07T13:31:10;23.70;35.40
43697;DHT22;29301;47.620;19.560;2023-05-07T13:33:35;23.60;37.40
43697;DHT22;29301;47.620;19.560;2023-05-07T13:36:02;23.40;37.90
43697;DHT22;29301;47.620;19.560;2023-05-07T13:38:30;23.30;37.30
43697;DHT22;29301;47.620;19.560;2023-05-07T13:40:55;23.30;36.80
43697;DHT22;29301;47.620;19.560;2023-05-07T13:43:21;23.30;36.30
43697;DHT22;29301;47.620;19.560;2023-05-07T13:45:47;23.30;35.30
43697;DHT22;29301;47.620;19.560;2023-05-07T13:48:13;23.30;34.70
43697;DHT22;29301;47.620;19.560;2023-05-07T13:50:38;23.30;35.20
43697;DHT22;29301;47.620;19.560;2023-05-07T13:53:04;23.40;35.70
43697;DHT22;29301;47.620;19.560;2023-05-07T13:55:30;23.50;35.30
43697;DHT22;29301;47.620;19.560;2023-05-07T13:58:00;23.60;35.70
43697;DHT22;29301;47.620;19.560;2023-05-07T14:00:27;23.70;35.80
43697;DHT22;29301;47.620;19.560;2023-05-07T14:02:54;23.70;35.80
43697;DHT22;29301;47.620;19.560;2023-05-07T14:05:20;23.90;35.20
43697;DHT22;29301;47.620;19.560;2023-05-07T14:07:46;24.00;34.50
43697;DHT22;29301;47.620;19.560;2023-05-07T14:10:12;24.10;34.30
43697;DHT22;29301;47.620;19.560;2023-05-07T14:12:38;24.10;33.70
43697;DHT22;29301;47.620;19.560;2023-05-07T14:15:07;24.10;34.10
43697;DHT22;29301;47.620;19.560;2023-05-07T14:17:33;24.00;34.90
43697;DHT22;29301;47.620;19.560;2023-05-07T14:19:58;23.80;35.80
43697;DHT22;29301;47.620;19.560;2023-05-07T14:22:24;23.70;36.80
43697;DHT22;29301;47.620;19.560;2023-05-07T14:24:50;23.60;36.50
43697;DHT22;29301;47.620;19.560;2023-05-07T14:27:16;23.60;37.10
43697;DHT22;29301;47.620;19.560;2023-05-07T14:29:42;23.60;36.60
43697;DHT22;29301;47.620;19.560;2023-05-07T14:32:08;23.60;35.50
43697;DHT22;29301;47.620;19.560;2023-05-07T14:34:34;23.60;35.40
43697;DHT22;29301;47.620;19.560;2023-05-07T14:37:00;23.50;36.20
43697;DHT22;29301;47.620;19.560;2023-05-07T14:39:27;23.70;35.50
43697;DHT22;29301;47.620;19.560;2023-05-07T14:41:52;23.90;35.40
43697;DHT22;29301;47.620;19.560;2023-05-07T14:44:20;24.10;34.80
43697;DHT22;29301;47.620;19.560;2023-05-07T14:46:46;24.20;33.70
43697;DHT22;29301;47.620;19.560;2023-05-07T14:49:11;24.20;33.20
43697;DHT22;29301;47.620;19.560;2023-05-07T14:51:45;24.20;32.60
43697;DHT22;29301;47.620;19.560;2023-05-07T14:54:12;24.30;32.40
43697;DHT22;29301;47.620;19.560;2023-05-07T14:56:38;24.40;32.80
43697;DHT22;29301;47.620;19.560;2023-05-07T14:59:04;24.50;31.70
43697;DHT22;29301;47.620;19.560;2023-05-07T15:01:30;24.60;31.30
43697;DHT22;29301;47.620;19.560;2023-05-07T15:03:55;24.60;31.10
43697;DHT22;29301;47.620;19.560;2023-05-07T15:06:21;24.50;31.50
43697;DHT22;29301;47.620;19.560;2023-05-07T15:08:47;24.60;30.70
43697;DHT22;29301;47.620;19.560;2023-05-07T15:11:16;24.60;30.50
43697;DHT22;29301;47.620;19.560;2023-05-07T15:13:44;24.60;30.80
43697;DHT22;29301;47.620;19.560;2023-05-07T15:16:10;24.50;30.10
43697;DHT22;29301;47.620;19.560;2023-05-07T15:18:36;24.30;30.30
43697;DHT22;29301;47.620;19.560;2023-05-07T15:21:02;24.20;29.90
43697;DHT22;29301;47.620;19.560;2023-05-07T15:23:27;24.20;29.70
43697;DHT22;29301;47.620;19.560;2023-05-07T15:25:53;24.30;30.00
43697;DHT22;29301;47.620;19.560;2023-05-07T15:28:19;24.30;30.50